sensor_id;sensor_type;location;lat;lon;timestamp;P1;durP1;ratioP1;P2;durP2;ratioP2
75984;SDS011;65033;44.660;37.758;2024-01-27T00:00:20;4.70;;;2.78;;
75984;SDS011;65033;44.660;37.758;2024-01-27T00:01:24;7.00;;;2.28;;
75984;SDS011;65033;44.660;37.758;2024-01-27T00:02:28;5.82;;;1.95;;
75984;SDS011;65033;44.660;37.758;2024-01-27T00:03:32;3.78;;;1.67;;
75984;SDS011;65033;44.660;37.758;2024-01-27T00:04:36;2.20;;;1.55;;
75984;SDS011;65033;44.660;37.758;2024-01-27T00:05:39;2.65;;;1.50;;
75984;SDS011;65033;44.660;37.758;2024-01-27T00:06:43;1.45;;;1.10;;
75984;SDS011;65033;44.660;37.758;2024-01-27T00:07:46;2.90;;;1.50;;
75984;SDS011;65033;44.660;37.758;2024-01-27T00:08:50;3.35;;;1.77;;
75984;SDS011;65033;44.660;37.758;2024-01-27T00:09:53;3.15;;;2.03;;
75984;SDS011;65033;44.660;37.758;2024-01-27T00:10:58;6.47;;;2.50;;
75984;SDS011;65033;44.660;37.758;2024-01-27T00:12:03;5.68;;;2.38;;
75984;SDS011;65033;44.660;37.758;2024-01-27T00:13:07;6.45;;;3.45;;
75984;SDS011;65033;44.660;37.758;2024-01-27T00:14:10;5.40;;;2.65;;
75984;SDS011;65033;44.660;37.758;2024-01-27T00:15:14;5.80;;;2.55;;
75984;SDS011;65033;44.660;37.758;2024-01-27T00:16:17;4.70;;;2.60;;
75984;SDS011;65033;44.660;37.758;2024-01-27T00:17:21;3.53;;;2.35;;
75984;SDS011;65033;44.660;37.758;2024-01-27T00:18:27;3.88;;;2.00;;
75984;SDS011;65033;44.660;37.758;2024-01-27T00:19:31;2.90;;;1.83;;
75984;SDS011;65033;44.660;37.758;2024-01-27T00:20:34;6.43;;;2.80;;
75984;SDS011;65033;44.660;37.758;2024-01-27T00:21:38;2.80;;;1.85;;
75984;SDS011;65033;44.660;37.758;2024-01-27T00:22:42;2.75;;;1.80;;
75984;SDS011;65033;44.660;37.758;2024-01-27T00:23:45;2.15;;;1.38;;
75984;SDS011;65033;44.660;37.758;2024-01-27T00:24:49;3.20;;;1.52;;
75984;SDS011;65033;44.660;37.758;2024-01-27T00:25:53;1.73;;;1.10;;
75984;SDS011;65033;44.660;37.758;2024-01-27T00:26:56;1.77;;;0.88;;
75984;SDS011;65033;44.660;37.758;2024-01-27T00:28:01;1.65;;;1.33;;
75984;SDS011;65033;44.660;37.758;2024-01-27T00:29:05;3.20;;;1.40;;
75984;SDS011;65033;44.660;37.758;2024-01-27T00:30:09;1.35;;;1.13;;
75984;SDS011;65033;44.660;37.758;2024-01-27T00:31:14;1.13;;;1.02;;
75984;SDS011;65033;44.660;37.758;2024-01-27T00:32:17;1.27;;;0.80;;
75984;SDS011;65033;44.660;37.758;2024-01-27T00:33:21;1.73;;;0.93;;
75984;SDS011;65033;44.660;37.758;2024-01-27T00:34:25;2.72;;;1.15;;
75984;SDS011;65033;44.660;37.758;2024-01-27T00:35:28;3.47;;;1.67;;
75984;SDS011;65033;44.660;37.758;2024-01-27T00:36:31;1.95;;;1.13;;
75984;SDS011;65033;44.660;37.758;2024-01-27T00:37:35;3.25;;;2.00;;
75984;SDS011;65033;44.660;37.758;2024-01-27T00:38:38;4.80;;;2.88;;
75984;SDS011;65033;44.660;37.758;2024-01-27T00:39:42;6.22;;;2.28;;
75984;SDS011;65033;44.660;37.758;2024-01-27T00:40:46;6.47;;;3.35;;
75984;SDS011;65033;44.660;37.758;2024-01-27T00:41:49;8.95;;;3.53;;
75984;SDS011;65033;44.660;37.758;2024-01-27T00:42:55;5.47;;;2.67;;
75984;SDS011;65033;44.660;37.758;2024-01-27T00:44:00;5.20;;;2.50;;
75984;SDS011;65033;44.660;37.758;2024-01-27T00:45:04;6.78;;;3.10;;
75984;SDS011;65033;44.660;37.758;2024-01-27T00:46:08;2.28;;;1.55;;
75984;SDS011;65033;44.660;37.758;2024-01-27T00:47:12;1.90;;;1.02;;
75984;SDS011;65033;44.660;37.758;2024-01-27T00:48:15;5.95;;;2.17;;
75984;SDS011;65033;44.660;37.758;2024-01-27T00:49:19;9.07;;;3.42;;
75984;SDS011;65033;44.660;37.758;2024-01-27T00:50:23;2.95;;;1.77;;
75984;SDS011;65033;44.660;37.758;2024-01-27T00:51:27;2.17;;;1.80;;
75984;SDS011;65033;44.660;37.758;2024-01-27T00:52:30;1.75;;;0.98;;
75984;SDS011;65033;44.660;37.758;2024-01-27T00:53:33;5.40;;;2.03;;
75984;SDS011;65033;44.660;37.758;2024-01-27T00:54:37;2.75;;;1.60;;
75984;SDS011;65033;44.660;37.758;2024-01-27T00:55:41;4.53;;;2.42;;
75984;SDS011;65033;44.660;37.758;2024-01-27T00:56:45;3.22;;;1.90;;
75984;SDS011;65033;44.660;37.758;2024-01-27T00:57:48;4.05;;;2.20;;
75984;SDS011;65033;44.660;37.758;2024-01-27T00:58:52;6.70;;;3.38;;
75984;SDS011;65033;44.660;37.758;2024-01-27T00:59:57;3.22;;;1.60;;
75984;SDS011;65033;44.660;37.758;2024-01-27T01:01:01;4.25;;;2.13;;
75984;SDS011;65033;44.660;37.758;2024-01-27T01:02:06;2.95;;;1.90;;
75984;SDS011;65033;44.660;37.758;2024-01-27T01:03:10;3.72;;;1.80;;
75984;SDS011;65033;44.660;37.758;2024-01-27T01:04:13;4.60;;;2.13;;
75984;SDS011;65033;44.660;37.758;2024-01-27T01:05:17;5.22;;;1.98;;
75984;SDS011;65033;44.660;37.758;2024-01-27T01:06:21;6.13;;;2.70;;
75984;SDS011;65033;44.660;37.758;2024-01-27T01:07:25;6.55;;;2.55;;
75984;SDS011;65033;44.660;37.758;2024-01-27T01:08:29;3.50;;;1.80;;
75984;SDS011;65033;44.660;37.758;2024-01-27T01:09:33;3.47;;;2.00;;
75984;SDS011;65033;44.660;37.758;2024-01-27T01:10:37;3.50;;;1.85;;
75984;SDS011;65033;44.660;37.758;2024-01-27T01:11:40;2.05;;;1.20;;
75984;SDS011;65033;44.660;37.758;2024-01-27T01:12:44;4.18;;;2.30;;
75984;SDS011;65033;44.660;37.758;2024-01-27T01:13:47;2.67;;;1.35;;
75984;SDS011;65033;44.660;37.758;2024-01-27T01:14:51;1.17;;;0.68;;
75984;SDS011;65033;44.660;37.758;2024-01-27T01:15:56;4.68;;;2.30;;
75984;SDS011;65033;44.660;37.758;2024-01-27T01:17:00;2.30;;;1.73;;
75984;SDS011;65033;44.660;37.758;2024-01-27T01:18:04;2.40;;;1.27;;
75984;SDS011;65033;44.660;37.758;2024-01-27T01:19:08;3.22;;;1.63;;
75984;SDS011;65033;44.660;37.758;2024-01-27T01:20:16;3.25;;;1.20;;
75984;SDS011;65033;44.660;37.758;2024-01-27T01:21:19;2.35;;;1.00;;
75984;SDS011;65033;44.660;37.758;2024-01-27T01:22:23;2.55;;;1.45;;
75984;SDS011;65033;44.660;37.758;2024-01-27T01:23:26;1.23;;;1.02;;
75984;SDS011;65033;44.660;37.758;2024-01-27T01:24:30;5.75;;;3.10;;
75984;SDS011;65033;44.660;37.758;2024-01-27T01:25:34;2.13;;;1.33;;
75984;SDS011;65033;44.660;37.758;2024-01-27T01:26:38;5.10;;;2.42;;
75984;SDS011;65033;44.660;37.758;2024-01-27T01:27:41;1.83;;;1.48;;
75984;SDS011;65033;44.660;37.758;2024-01-27T01:28:45;3.22;;;1.90;;
75984;SDS011;65033;44.660;37.758;2024-01-27T01:29:48;6.82;;;3.97;;
75984;SDS011;65033;44.660;37.758;2024-01-27T01:30:52;6.43;;;2.90;;
75984;SDS011;65033;44.660;37.758;2024-01-27T01:31:57;2.50;;;1.60;;
75984;SDS011;65033;44.660;37.758;2024-01-27T01:33:00;4.57;;;1.77;;
75984;SDS011;65033;44.660;37.758;2024-01-27T01:34:04;6.13;;;2.50;;
75984;SDS011;65033;44.660;37.758;2024-01-27T01:35:07;3.80;;;2.33;;
75984;SDS011;65033;44.660;37.758;2024-01-27T01:36:12;3.42;;;1.50;;
75984;SDS011;65033;44.660;37.758;2024-01-27T01:37:16;7.07;;;2.58;;
75984;SDS011;65033;44.660;37.758;2024-01-27T01:38:19;6.18;;;2.45;;
75984;SDS011;65033;44.660;37.758;2024-01-27T01:39:23;3.67;;;1.02;;
75984;SDS011;65033;44.660;37.758;2024-01-27T01:40:26;8.15;;;2.92;;
75984;SDS011;65033;44.660;37.758;2024-01-27T01:41:30;5.78;;;2.78;;
75984;SDS011;65033;44.660;37.758;2024-01-27T01:42:33;4.78;;;1.75;;
75984;SDS011;65033;44.660;37.758;2024-01-27T01:43:37;2.75;;;1.75;;
75984;SDS011;65033;44.660;37.758;2024-01-27T01:44:40;4.28;;;1.75;;
75984;SDS011;65033;44.660;37.758;2024-01-27T01:45:44;3.08;;;1.65;;
75984;SDS011;65033;44.660;37.758;2024-01-27T01:46:47;1.67;;;1.05;;
75984;SDS011;65033;44.660;37.758;2024-01-27T01:47:52;3.92;;;1.52;;
75984;SDS011;65033;44.660;37.758;2024-01-27T01:48:56;3.97;;;1.50;;
75984;SDS011;65033;44.660;37.758;2024-01-27T01:50:00;7.10;;;3.08;;
75984;SDS011;65033;44.660;37.758;2024-01-27T01:51:04;3.30;;;1.58;;
75984;SDS011;65033;44.660;37.758;2024-01-27T01:52:08;5.63;;;2.40;;
75984;SDS011;65033;44.660;37.758;2024-01-27T01:53:12;4.32;;;2.78;;
75984;SDS011;65033;44.660;37.758;2024-01-27T01:54:16;2.65;;;0.95;;
75984;SDS011;65033;44.660;37.758;2024-01-27T01:55:21;2.67;;;1.45;;
75984;SDS011;65033;44.660;37.758;2024-01-27T01:56:24;4.68;;;2.00;;
75984;SDS011;65033;44.660;37.758;2024-01-27T01:57:28;6.72;;;2.97;;
75984;SDS011;65033;44.660;37.758;2024-01-27T01:58:32;3.60;;;1.25;;
75984;SDS011;65033;44.660;37.758;2024-01-27T01:59:36;5.72;;;2.90;;
75984;SDS011;65033;44.660;37.758;2024-01-27T02:00:44;5.30;;;1.50;;
75984;SDS011;65033;44.660;37.758;2024-01-27T02:01:48;7.30;;;3.28;;
75984;SDS011;65033;44.660;37.758;2024-01-27T02:02:53;3.90;;;2.10;;
75984;SDS011;65033;44.660;37.758;2024-01-27T02:03:57;4.15;;;1.88;;
75984;SDS011;65033;44.660;37.758;2024-01-27T02:05:00;7.03;;;2.75;;
75984;SDS011;65033;44.660;37.758;2024-01-27T02:06:04;4.10;;;1.88;;
75984;SDS011;65033;44.660;37.758;2024-01-27T02:07:09;4.20;;;2.00;;
75984;SDS011;65033;44.660;37.758;2024-01-27T02:08:13;4.43;;;2.22;;
75984;SDS011;65033;44.660;37.758;2024-01-27T02:09:16;7.75;;;2.45;;
75984;SDS011;65033;44.660;37.758;2024-01-27T02:10:20;2.30;;;1.27;;
75984;SDS011;65033;44.660;37.758;2024-01-27T02:11:23;9.88;;;2.67;;
75984;SDS011;65033;44.660;37.758;2024-01-27T02:12:27;4.28;;;2.08;;
75984;SDS011;65033;44.660;37.758;2024-01-27T02:13:30;7.68;;;1.88;;
75984;SDS011;65033;44.660;37.758;2024-01-27T02:14:34;3.55;;;1.77;;
75984;SDS011;65033;44.660;37.758;2024-01-27T02:15:38;5.28;;;2.50;;
75984;SDS011;65033;44.660;37.758;2024-01-27T02:16:41;3.13;;;1.30;;
75984;SDS011;65033;44.660;37.758;2024-01-27T02:17:45;4.63;;;1.65;;
75984;SDS011;65033;44.660;37.758;2024-01-27T02:18:50;2.30;;;1.30;;
75984;SDS011;65033;44.660;37.758;2024-01-27T02:19:53;1.80;;;0.90;;
75984;SDS011;65033;44.660;37.758;2024-01-27T02:20:57;2.25;;;1.05;;
75984;SDS011;65033;44.660;37.758;2024-01-27T02:22:00;6.00;;;2.50;;
75984;SDS011;65033;44.660;37.758;2024-01-27T02:23:04;1.27;;;0.90;;
75984;SDS011;65033;44.660;37.758;2024-01-27T02:24:09;5.32;;;2.85;;
75984;SDS011;65033;44.660;37.758;2024-01-27T02:25:13;2.63;;;1.10;;
75984;SDS011;65033;44.660;37.758;2024-01-27T02:26:16;4.70;;;1.85;;
75984;SDS011;65033;44.660;37.758;2024-01-27T02:27:20;2.50;;;1.48;;
75984;SDS011;65033;44.660;37.758;2024-01-27T02:28:23;8.18;;;3.75;;
75984;SDS011;65033;44.660;37.758;2024-01-27T02:29:27;3.33;;;1.45;;
75984;SDS011;65033;44.660;37.758;2024-01-27T02:30:31;2.50;;;1.40;;
75984;SDS011;65033;44.660;37.758;2024-01-27T02:31:34;3.08;;;1.40;;
75984;SDS011;65033;44.660;37.758;2024-01-27T02:32:37;2.10;;;1.10;;
75984;SDS011;65033;44.660;37.758;2024-01-27T02:33:41;3.50;;;2.28;;
75984;SDS011;65033;44.660;37.758;2024-01-27T02:34:45;5.97;;;2.15;;
75984;SDS011;65033;44.660;37.758;2024-01-27T02:35:48;2.45;;;1.40;;
75984;SDS011;65033;44.660;37.758;2024-01-27T02:36:51;2.17;;;1.40;;
75984;SDS011;65033;44.660;37.758;2024-01-27T02:37:55;2.50;;;1.50;;
75984;SDS011;65033;44.660;37.758;2024-01-27T02:38:58;4.30;;;1.40;;
75984;SDS011;65033;44.660;37.758;2024-01-27T02:40:04;4.80;;;2.97;;
75984;SDS011;65033;44.660;37.758;2024-01-27T02:41:10;2.05;;;1.48;;
75984;SDS011;65033;44.660;37.758;2024-01-27T02:42:14;3.45;;;2.20;;
75984;SDS011;65033;44.660;37.758;2024-01-27T02:43:17;4.32;;;1.67;;
75984;SDS011;65033;44.660;37.758;2024-01-27T02:44:21;3.33;;;1.33;;
75984;SDS011;65033;44.660;37.758;2024-01-27T02:45:25;2.25;;;1.33;;
75984;SDS011;65033;44.660;37.758;2024-01-27T02:46:28;2.38;;;1.40;;
75984;SDS011;65033;44.660;37.758;2024-01-27T02:47:32;2.50;;;1.45;;
75984;SDS011;65033;44.660;37.758;2024-01-27T02:48:35;2.00;;;1.27;;
75984;SDS011;65033;44.660;37.758;2024-01-27T02:49:39;2.30;;;1.88;;
75984;SDS011;65033;44.660;37.758;2024-01-27T02:50:42;3.58;;;1.60;;
75984;SDS011;65033;44.660;37.758;2024-01-27T02:51:46;2.50;;;1.63;;
75984;SDS011;65033;44.660;37.758;2024-01-27T02:52:50;3.15;;;1.50;;
75984;SDS011;65033;44.660;37.758;2024-01-27T02:53:54;1.70;;;1.30;;
75984;SDS011;65033;44.660;37.758;2024-01-27T02:54:57;2.13;;;1.23;;
75984;SDS011;65033;44.660;37.758;2024-01-27T02:56:05;1.80;;;0.90;;
75984;SDS011;65033;44.660;37.758;2024-01-27T02:57:10;4.47;;;1.40;;
75984;SDS011;65033;44.660;37.758;2024-01-27T02:58:14;2.78;;;1.02;;
75984;SDS011;65033;44.660;37.758;2024-01-27T02:59:17;4.15;;;1.50;;
75984;SDS011;65033;44.660;37.758;2024-01-27T03:00:21;1.90;;;1.50;;
75984;SDS011;65033;44.660;37.758;2024-01-27T03:01:25;4.47;;;1.48;;
75984;SDS011;65033;44.660;37.758;2024-01-27T03:02:29;2.35;;;1.27;;
75984;SDS011;65033;44.660;37.758;2024-01-27T03:03:32;3.15;;;1.63;;
75984;SDS011;65033;44.660;37.758;2024-01-27T03:04:36;1.83;;;1.27;;
75984;SDS011;65033;44.660;37.758;2024-01-27T03:05:40;2.15;;;1.10;;
75984;SDS011;65033;44.660;37.758;2024-01-27T03:06:43;7.60;;;3.30;;
75984;SDS011;65033;44.660;37.758;2024-01-27T03:07:47;8.93;;;3.38;;
75984;SDS011;65033;44.660;37.758;2024-01-27T03:08:51;8.45;;;4.22;;
75984;SDS011;65033;44.660;37.758;2024-01-27T03:09:54;5.05;;;2.60;;
75984;SDS011;65033;44.660;37.758;2024-01-27T03:10:58;4.55;;;2.50;;
75984;SDS011;65033;44.660;37.758;2024-01-27T03:12:03;4.60;;;1.65;;
75984;SDS011;65033;44.660;37.758;2024-01-27T03:13:07;5.05;;;2.28;;
75984;SDS011;65033;44.660;37.758;2024-01-27T03:14:10;5.50;;;2.97;;
75984;SDS011;65033;44.660;37.758;2024-01-27T03:15:14;3.90;;;2.15;;
75984;SDS011;65033;44.660;37.758;2024-01-27T03:16:17;1.77;;;1.10;;
75984;SDS011;65033;44.660;37.758;2024-01-27T03:17:22;2.00;;;1.38;;
75984;SDS011;65033;44.660;37.758;2024-01-27T03:18:26;4.53;;;1.40;;
75984;SDS011;65033;44.660;37.758;2024-01-27T03:19:29;3.13;;;2.17;;
75984;SDS011;65033;44.660;37.758;2024-01-27T03:20:33;5.82;;;2.55;;
75984;SDS011;65033;44.660;37.758;2024-01-27T03:21:36;2.55;;;1.48;;
75984;SDS011;65033;44.660;37.758;2024-01-27T03:22:40;2.83;;;1.77;;
75984;SDS011;65033;44.660;37.758;2024-01-27T03:23:44;2.67;;;1.23;;
75984;SDS011;65033;44.660;37.758;2024-01-27T03:24:48;3.22;;;2.17;;
75984;SDS011;65033;44.660;37.758;2024-01-27T03:25:52;5.80;;;2.67;;
75984;SDS011;65033;44.660;37.758;2024-01-27T03:26:57;5.65;;;3.13;;
75984;SDS011;65033;44.660;37.758;2024-01-27T03:28:02;2.63;;;1.65;;
75984;SDS011;65033;44.660;37.758;2024-01-27T03:29:06;2.13;;;1.48;;
75984;SDS011;65033;44.660;37.758;2024-01-27T03:30:10;3.67;;;2.17;;
75984;SDS011;65033;44.660;37.758;2024-01-27T03:31:14;4.18;;;2.15;;
75984;SDS011;65033;44.660;37.758;2024-01-27T03:32:17;3.78;;;2.33;;
75984;SDS011;65033;44.660;37.758;2024-01-27T03:33:21;4.05;;;1.65;;
75984;SDS011;65033;44.660;37.758;2024-01-27T03:34:25;2.17;;;1.48;;
75984;SDS011;65033;44.660;37.758;2024-01-27T03:35:29;2.72;;;1.75;;
75984;SDS011;65033;44.660;37.758;2024-01-27T03:36:33;2.47;;;1.40;;
75984;SDS011;65033;44.660;37.758;2024-01-27T03:37:36;2.47;;;1.98;;
75984;SDS011;65033;44.660;37.758;2024-01-27T03:38:40;2.05;;;1.55;;
75984;SDS011;65033;44.660;37.758;2024-01-27T03:39:44;3.75;;;1.52;;
75984;SDS011;65033;44.660;37.758;2024-01-27T03:40:47;1.85;;;1.45;;
75984;SDS011;65033;44.660;37.758;2024-01-27T03:41:51;3.85;;;1.30;;
75984;SDS011;65033;44.660;37.758;2024-01-27T03:42:54;3.25;;;1.85;;
75984;SDS011;65033;44.660;37.758;2024-01-27T03:43:59;2.50;;;1.27;;
75984;SDS011;65033;44.660;37.758;2024-01-27T03:45:03;2.20;;;1.30;;
75984;SDS011;65033;44.660;37.758;2024-01-27T03:46:08;4.97;;;2.35;;
75984;SDS011;65033;44.660;37.758;2024-01-27T03:47:11;1.63;;;1.20;;
75984;SDS011;65033;44.660;37.758;2024-01-27T03:48:15;4.95;;;1.75;;
75984;SDS011;65033;44.660;37.758;2024-01-27T03:49:19;2.95;;;1.63;;
75984;SDS011;65033;44.660;37.758;2024-01-27T03:50:22;6.93;;;3.83;;
75984;SDS011;65033;44.660;37.758;2024-01-27T03:51:26;3.20;;;1.92;;
75984;SDS011;65033;44.660;37.758;2024-01-27T03:52:29;2.90;;;1.98;;
75984;SDS011;65033;44.660;37.758;2024-01-27T03:53:33;3.75;;;2.17;;
75984;SDS011;65033;44.660;37.758;2024-01-27T03:54:38;4.47;;;1.77;;
75984;SDS011;65033;44.660;37.758;2024-01-27T03:55:42;4.05;;;2.33;;
75984;SDS011;65033;44.660;37.758;2024-01-27T03:56:45;5.35;;;2.50;;
75984;SDS011;65033;44.660;37.758;2024-01-27T03:57:49;6.53;;;3.05;;
75984;SDS011;65033;44.660;37.758;2024-01-27T03:58:52;4.60;;;2.35;;
75984;SDS011;65033;44.660;37.758;2024-01-27T03:59:57;4.20;;;2.28;;
75984;SDS011;65033;44.660;37.758;2024-01-27T04:01:01;4.07;;;2.28;;
75984;SDS011;65033;44.660;37.758;2024-01-27T04:02:05;5.53;;;2.78;;
75984;SDS011;65033;44.660;37.758;2024-01-27T04:03:09;5.30;;;2.97;;
75984;SDS011;65033;44.660;37.758;2024-01-27T04:04:12;6.55;;;2.75;;
75984;SDS011;65033;44.660;37.758;2024-01-27T04:05:17;4.65;;;2.65;;
75984;SDS011;65033;44.660;37.758;2024-01-27T04:06:23;4.15;;;2.00;;
75984;SDS011;65033;44.660;37.758;2024-01-27T04:07:30;4.50;;;2.40;;
75984;SDS011;65033;44.660;37.758;2024-01-27T04:08:33;5.68;;;2.60;;
75984;SDS011;65033;44.660;37.758;2024-01-27T04:09:37;6.85;;;3.00;;
75984;SDS011;65033;44.660;37.758;2024-01-27T04:10:40;3.13;;;1.92;;
75984;SDS011;65033;44.660;37.758;2024-01-27T04:11:44;3.33;;;2.17;;
75984;SDS011;65033;44.660;37.758;2024-01-27T04:12:48;2.78;;;1.92;;
75984;SDS011;65033;44.660;37.758;2024-01-27T04:13:51;4.47;;;1.95;;
75984;SDS011;65033;44.660;37.758;2024-01-27T04:14:57;5.72;;;2.67;;
75984;SDS011;65033;44.660;37.758;2024-01-27T04:16:02;4.38;;;2.35;;
75984;SDS011;65033;44.660;37.758;2024-01-27T04:17:06;4.57;;;2.80;;
75984;SDS011;65033;44.660;37.758;2024-01-27T04:18:10;7.25;;;4.05;;
75984;SDS011;65033;44.660;37.758;2024-01-27T04:19:14;4.53;;;2.17;;
75984;SDS011;65033;44.660;37.758;2024-01-27T04:20:18;5.28;;;2.97;;
75984;SDS011;65033;44.660;37.758;2024-01-27T04:21:21;5.20;;;2.70;;
75984;SDS011;65033;44.660;37.758;2024-01-27T04:22:25;10.10;;;5.38;;
75984;SDS011;65033;44.660;37.758;2024-01-27T04:23:28;4.95;;;3.40;;
75984;SDS011;65033;44.660;37.758;2024-01-27T04:24:32;2.72;;;1.95;;
75984;SDS011;65033;44.660;37.758;2024-01-27T04:25:35;6.97;;;2.03;;
75984;SDS011;65033;44.660;37.758;2024-01-27T04:26:42;4.35;;;2.92;;
75984;SDS011;65033;44.660;37.758;2024-01-27T04:27:46;3.50;;;2.17;;
75984;SDS011;65033;44.660;37.758;2024-01-27T04:28:49;5.10;;;3.80;;
75984;SDS011;65033;44.660;37.758;2024-01-27T04:29:53;4.93;;;3.05;;
75984;SDS011;65033;44.660;37.758;2024-01-27T04:30:58;4.32;;;2.40;;
75984;SDS011;65033;44.660;37.758;2024-01-27T04:32:01;3.47;;;2.28;;
75984;SDS011;65033;44.660;37.758;2024-01-27T04:33:05;3.70;;;2.42;;
75984;SDS011;65033;44.660;37.758;2024-01-27T04:34:10;3.53;;;2.17;;
75984;SDS011;65033;44.660;37.758;2024-01-27T04:35:13;3.80;;;2.33;;
75984;SDS011;65033;44.660;37.758;2024-01-27T04:36:24;3.40;;;2.42;;
75984;SDS011;65033;44.660;37.758;2024-01-27T04:37:29;4.82;;;2.50;;
75984;SDS011;65033;44.660;37.758;2024-01-27T04:38:32;3.50;;;2.47;;
75984;SDS011;65033;44.660;37.758;2024-01-27T04:39:37;5.38;;;2.35;;
75984;SDS011;65033;44.660;37.758;2024-01-27T04:40:40;4.70;;;2.38;;
75984;SDS011;65033;44.660;37.758;2024-01-27T04:41:44;13.25;;;6.07;;
75984;SDS011;65033;44.660;37.758;2024-01-27T04:42:47;15.80;;;8.02;;
75984;SDS011;65033;44.660;37.758;2024-01-27T04:43:51;10.48;;;5.57;;
75984;SDS011;65033;44.660;37.758;2024-01-27T04:44:55;7.53;;;4.22;;
75984;SDS011;65033;44.660;37.758;2024-01-27T04:46:01;10.45;;;5.65;;
75984;SDS011;65033;44.660;37.758;2024-01-27T04:47:04;5.10;;;3.10;;
75984;SDS011;65033;44.660;37.758;2024-01-27T04:48:08;5.32;;;3.25;;
75984;SDS011;65033;44.660;37.758;2024-01-27T04:49:11;6.85;;;3.33;;
75984;SDS011;65033;44.660;37.758;2024-01-27T04:50:16;8.40;;;4.10;;
75984;SDS011;65033;44.660;37.758;2024-01-27T04:51:20;5.35;;;3.17;;
75984;SDS011;65033;44.660;37.758;2024-01-27T04:52:23;5.20;;;3.30;;
75984;SDS011;65033;44.660;37.758;2024-01-27T04:53:28;10.73;;;4.95;;
75984;SDS011;65033;44.660;37.758;2024-01-27T04:54:31;8.80;;;3.95;;
75984;SDS011;65033;44.660;37.758;2024-01-27T04:55:35;6.65;;;3.58;;
75984;SDS011;65033;44.660;37.758;2024-01-27T04:56:38;10.13;;;4.30;;
75984;SDS011;65033;44.660;37.758;2024-01-27T04:57:42;7.65;;;4.28;;
75984;SDS011;65033;44.660;37.758;2024-01-27T04:58:46;4.80;;;3.33;;
75984;SDS011;65033;44.660;37.758;2024-01-27T04:59:50;6.80;;;3.25;;
75984;SDS011;65033;44.660;37.758;2024-01-27T05:00:53;7.10;;;4.70;;
75984;SDS011;65033;44.660;37.758;2024-01-27T05:01:59;5.90;;;3.35;;
75984;SDS011;65033;44.660;37.758;2024-01-27T05:03:03;5.28;;;3.03;;
75984;SDS011;65033;44.660;37.758;2024-01-27T05:04:09;8.32;;;3.75;;
75984;SDS011;65033;44.660;37.758;2024-01-27T05:05:13;6.72;;;4.05;;
75984;SDS011;65033;44.660;37.758;2024-01-27T05:06:17;7.43;;;4.07;;
75984;SDS011;65033;44.660;37.758;2024-01-27T05:07:20;12.25;;;6.05;;
75984;SDS011;65033;44.660;37.758;2024-01-27T05:08:24;5.70;;;3.25;;
75984;SDS011;65033;44.660;37.758;2024-01-27T05:09:27;5.65;;;3.88;;
75984;SDS011;65033;44.660;37.758;2024-01-27T05:10:31;5.47;;;3.88;;
75984;SDS011;65033;44.660;37.758;2024-01-27T05:11:34;9.02;;;5.15;;
75984;SDS011;65033;44.660;37.758;2024-01-27T05:12:38;10.65;;;4.82;;
75984;SDS011;65033;44.660;37.758;2024-01-27T05:13:41;6.95;;;4.45;;
75984;SDS011;65033;44.660;37.758;2024-01-27T05:14:46;9.52;;;5.43;;
75984;SDS011;65033;44.660;37.758;2024-01-27T05:15:49;11.10;;;4.60;;
75984;SDS011;65033;44.660;37.758;2024-01-27T05:16:53;7.82;;;4.97;;
75984;SDS011;65033;44.660;37.758;2024-01-27T05:17:59;7.38;;;4.10;;
75984;SDS011;65033;44.660;37.758;2024-01-27T05:19:08;7.95;;;5.32;;
75984;SDS011;65033;44.660;37.758;2024-01-27T05:20:13;7.40;;;4.93;;
75984;SDS011;65033;44.660;37.758;2024-01-27T05:21:16;12.32;;;5.95;;
75984;SDS011;65033;44.660;37.758;2024-01-27T05:22:20;8.35;;;4.35;;
75984;SDS011;65033;44.660;37.758;2024-01-27T05:23:23;11.35;;;5.75;;
75984;SDS011;65033;44.660;37.758;2024-01-27T05:24:27;10.18;;;5.13;;
75984;SDS011;65033;44.660;37.758;2024-01-27T05:25:30;12.80;;;6.45;;
75984;SDS011;65033;44.660;37.758;2024-01-27T05:26:34;9.25;;;5.97;;
75984;SDS011;65033;44.660;37.758;2024-01-27T05:27:37;11.93;;;6.50;;
75984;SDS011;65033;44.660;37.758;2024-01-27T05:28:41;6.70;;;4.38;;
75984;SDS011;65033;44.660;37.758;2024-01-27T05:29:45;13.18;;;7.20;;
75984;SDS011;65033;44.660;37.758;2024-01-27T05:30:49;7.95;;;4.32;;
75984;SDS011;65033;44.660;37.758;2024-01-27T05:31:52;9.65;;;6.43;;
75984;SDS011;65033;44.660;37.758;2024-01-27T05:32:56;14.60;;;7.00;;
75984;SDS011;65033;44.660;37.758;2024-01-27T05:34:02;9.05;;;5.55;;
75984;SDS011;65033;44.660;37.758;2024-01-27T05:35:06;8.88;;;5.53;;
75984;SDS011;65033;44.660;37.758;2024-01-27T05:36:10;10.90;;;5.68;;
75984;SDS011;65033;44.660;37.758;2024-01-27T05:37:14;7.47;;;4.85;;
75984;SDS011;65033;44.660;37.758;2024-01-27T05:38:17;10.73;;;5.95;;
75984;SDS011;65033;44.660;37.758;2024-01-27T05:39:21;8.02;;;5.07;;
75984;SDS011;65033;44.660;37.758;2024-01-27T05:40:24;8.93;;;5.85;;
75984;SDS011;65033;44.660;37.758;2024-01-27T05:41:28;7.95;;;4.53;;
75984;SDS011;65033;44.660;37.758;2024-01-27T05:42:31;14.40;;;7.50;;
75984;SDS011;65033;44.660;37.758;2024-01-27T05:43:35;7.57;;;4.28;;
75984;SDS011;65033;44.660;37.758;2024-01-27T05:44:39;8.45;;;3.78;;
75984;SDS011;65033;44.660;37.758;2024-01-27T05:45:43;7.00;;;4.60;;
75984;SDS011;65033;44.660;37.758;2024-01-27T05:46:48;7.78;;;4.72;;
75984;SDS011;65033;44.660;37.758;2024-01-27T05:47:55;6.95;;;4.13;;
75984;SDS011;65033;44.660;37.758;2024-01-27T05:49:00;6.75;;;4.07;;
75984;SDS011;65033;44.660;37.758;2024-01-27T05:50:06;5.88;;;3.78;;
75984;SDS011;65033;44.660;37.758;2024-01-27T05:51:11;7.25;;;4.18;;
75984;SDS011;65033;44.660;37.758;2024-01-27T05:52:15;8.10;;;4.90;;
75984;SDS011;65033;44.660;37.758;2024-01-27T05:53:18;7.63;;;4.75;;
75984;SDS011;65033;44.660;37.758;2024-01-27T05:54:22;7.30;;;4.35;;
75984;SDS011;65033;44.660;37.758;2024-01-27T05:55:28;6.38;;;4.15;;
75984;SDS011;65033;44.660;37.758;2024-01-27T05:56:32;5.93;;;4.35;;
75984;SDS011;65033;44.660;37.758;2024-01-27T05:57:35;7.82;;;4.75;;
75984;SDS011;65033;44.660;37.758;2024-01-27T05:58:39;7.38;;;4.38;;
75984;SDS011;65033;44.660;37.758;2024-01-27T05:59:43;6.68;;;4.38;;
75984;SDS011;65033;44.660;37.758;2024-01-27T06:00:47;10.20;;;5.78;;
75984;SDS011;65033;44.660;37.758;2024-01-27T06:01:52;18.35;;;11.40;;
75984;SDS011;65033;44.660;37.758;2024-01-27T06:02:56;12.65;;;6.82;;
75984;SDS011;65033;44.660;37.758;2024-01-27T06:04:01;17.60;;;7.10;;
75984;SDS011;65033;44.660;37.758;2024-01-27T06:05:05;14.15;;;7.22;;
75984;SDS011;65033;44.660;37.758;2024-01-27T06:06:11;8.98;;;5.63;;
75984;SDS011;65033;44.660;37.758;2024-01-27T06:07:15;7.93;;;5.03;;
75984;SDS011;65033;44.660;37.758;2024-01-27T06:08:19;11.82;;;6.47;;
75984;SDS011;65033;44.660;37.758;2024-01-27T06:09:23;6.93;;;4.30;;
75984;SDS011;65033;44.660;37.758;2024-01-27T06:10:27;6.55;;;4.72;;
75984;SDS011;65033;44.660;37.758;2024-01-27T06:11:31;8.95;;;4.88;;
75984;SDS011;65033;44.660;37.758;2024-01-27T06:12:34;5.63;;;3.60;;
75984;SDS011;65033;44.660;37.758;2024-01-27T06:13:42;7.68;;;4.57;;
75984;SDS011;65033;44.660;37.758;2024-01-27T06:14:46;9.95;;;6.45;;
75984;SDS011;65033;44.660;37.758;2024-01-27T06:15:50;16.33;;;9.43;;
75984;SDS011;65033;44.660;37.758;2024-01-27T06:16:54;16.67;;;8.38;;
75984;SDS011;65033;44.660;37.758;2024-01-27T06:17:57;12.85;;;4.80;;
75984;SDS011;65033;44.660;37.758;2024-01-27T06:19:03;11.07;;;4.88;;